Terminal Aerodrome Forecast
Issued by NWS Cleveland, OH

Home | Current Version | Previous Version | Graphics & Text | Print | Product List | Glossary On
Versions: 1 2 3 4 5 6 7 8 9 10 11 12 13
000
FTUS41 KCLE 212324
TAFCAK
TAF
KCAK 212324Z 2200/2224 00000KT P6SM FEW250
     FM220900 00000KT 3SM BR FEW250
     FM221300 VRB03KT P6SM FEW250=

USA.gov is the U.S. government's official web portal to all federal, state and local government web resources and services.